createdAt,value
2023-01-22T00:01:38.723Z,100648.98
2023-01-22T00:06:44.172Z,100652.11
2023-01-22T00:11:51.187Z,100651.52
2023-01-22T00:16:55.357Z,100662.70
2023-01-22T00:22:00.792Z,100670.39
2023-01-22T00:27:04.339Z,100677.27
2023-01-22T00:32:07.343Z,100682.21
2023-01-22T00:37:11.292Z,100678.52
2023-01-22T00:42:17.046Z,100677.98
2023-01-22T00:47:22.666Z,100682.55
2023-01-22T00:52:26.232Z,100689.16
2023-01-22T00:57:30.303Z,100693.88
2023-01-22T01:02:55.387Z,100695.31
2023-01-22T01:08:00.088Z,100689.21
2023-01-22T01:13:05.077Z,100689.81
2023-01-22T01:18:14.747Z,100694.13
2023-01-22T01:23:17.413Z,100695.92
2023-01-22T01:28:20.985Z,100693.27
2023-01-22T01:33:24.398Z,100699.80
2023-01-22T01:38:27.040Z,100704.73
2023-01-22T01:43:30.059Z,100712.17
2023-01-22T01:48:43.575Z,100708.66
2023-01-22T01:53:48.304Z,100708.06
2023-01-22T01:58:56.563Z,100708.31
2023-01-22T02:04:01.846Z,100701.89
2023-01-22T02:09:04.552Z,100698.63
2023-01-22T02:14:21.355Z,100706.59
2023-01-22T02:19:25.034Z,100710.00
2023-01-22T02:24:31.328Z,100707.27
2023-01-22T02:29:34.479Z,100712.18
2023-01-22T02:34:37.570Z,100722.09
2023-01-22T02:39:40.443Z,100725.99
2023-01-22T02:44:44.676Z,100729.35
2023-01-22T02:49:47.940Z,100731.32
2023-01-22T02:54:51.057Z,100729.71
2023-01-22T02:59:53.891Z,100725.27
2023-01-22T03:05:03.501Z,100725.46
2023-01-22T03:10:06.945Z,100725.89
2023-01-22T03:15:28.031Z,100733.55
2023-01-22T03:20:49.354Z,100742.71
2023-01-22T03:25:56.388Z,100744.75
2023-01-22T03:30:59.517Z,100741.12
2023-01-22T03:36:09.432Z,100744.59
2023-01-22T03:41:15.945Z,100744.70
2023-01-22T03:46:21.238Z,100747.91
2023-01-22T03:51:25.495Z,100752.27
2023-01-22T03:56:28.568Z,100758.83
2023-01-22T04:01:32.340Z,100765.34
2023-01-22T04:06:35.442Z,100771.74
2023-01-22T04:11:38.412Z,100781.50
2023-01-22T04:16:41.681Z,100793.27
2023-01-22T04:21:44.479Z,100794.61
2023-01-22T04:26:47.550Z,100799.02
2023-01-22T04:31:50.942Z,100801.84
2023-01-22T04:36:54.385Z,100801.28
2023-01-22T04:41:56.617Z,100807.30
2023-01-22T04:46:59.615Z,100806.17
2023-01-22T04:52:02.352Z,100810.23
2023-01-22T04:57:05.313Z,100814.24
2023-01-22T05:02:08.638Z,100821.88
2023-01-22T05:07:11.634Z,100823.92
2023-01-22T05:12:14.458Z,100819.39
2023-01-22T05:17:18.047Z,100820.15
2023-01-22T05:22:21.113Z,100821.98
2023-01-22T05:27:23.840Z,100826.31
2023-01-22T05:32:27.205Z,100829.86
2023-01-22T05:37:31.786Z,100837.42
2023-01-22T05:42:34.763Z,100845.55
2023-01-22T05:47:38.275Z,100845.45
2023-01-22T05:52:41.946Z,100845.73
2023-01-22T05:57:46.634Z,100845.83
2023-01-22T06:02:49.836Z,100850.02
2023-01-22T06:07:54.564Z,100856.31
2023-01-22T06:12:57.315Z,100864.10
2023-01-22T06:18:01.321Z,100861.29
2023-01-22T06:23:05.667Z,100862.42
2023-01-22T06:28:08.264Z,100869.33
2023-01-22T06:33:10.885Z,100871.95
2023-01-22T06:38:14.094Z,100879.67
2023-01-22T06:43:17.275Z,100887.08
2023-01-22T06:48:20.792Z,100896.48
2023-01-22T06:53:27.931Z,100896.00
2023-01-22T06:58:30.907Z,100904.36
2023-01-22T07:03:33.875Z,100912.06
2023-01-22T07:08:37.066Z,100915.11
2023-01-22T07:13:39.648Z,100915.77
2023-01-22T07:18:43.116Z,100926.64
2023-01-22T07:23:46.335Z,100934.97
2023-01-22T07:28:49.211Z,100944.36
2023-01-22T07:33:51.936Z,100949.16
2023-01-22T07:38:54.326Z,100952.36
2023-01-22T07:43:57.465Z,100958.85
2023-01-22T07:48:59.516Z,100960.54
2023-01-22T07:54:01.592Z,100967.70
2023-01-22T07:59:09.504Z,100970.02
2023-01-22T08:04:11.985Z,100970.98
2023-01-22T08:09:15.773Z,100974.88
2023-01-22T08:14:18.159Z,100975.51
2023-01-22T08:19:20.934Z,100980.17
2023-01-22T08:24:23.407Z,100984.63
2023-01-22T08:29:25.894Z,100986.67
2023-01-22T08:36:13.345Z,100992.84
2023-01-22T08:41:15.635Z,100997.23
2023-01-22T08:46:17.684Z,101003.64
2023-01-22T08:51:23.171Z,101013.14
2023-01-22T08:56:26.319Z,101021.98
2023-01-22T09:01:29.191Z,101026.23
2023-01-22T09:06:31.888Z,101026.61
2023-01-22T09:11:35.645Z,101031.41
2023-01-22T09:16:40.008Z,101036.48
2023-01-22T09:21:44.128Z,101040.73
2023-01-22T09:26:49.355Z,101046.98
2023-01-22T09:31:52.490Z,101051.27
2023-01-22T09:36:57.063Z,101051.52
2023-01-22T09:42:04.094Z,101056.23
2023-01-22T09:47:27.118Z,101061.94
2023-01-22T09:52:36.815Z,101059.10
2023-01-22T09:57:53.719Z,101051.79
2023-01-22T10:03:13.048Z,101056.75
2023-01-22T10:08:44.785Z,101051.79
2023-01-22T10:13:52.287Z,101057.78
2023-01-22T10:19:04.346Z,101047.65
2023-01-22T10:24:12.124Z,101045.20
2023-01-22T10:29:29.663Z,101044.09
2023-01-22T10:34:35.670Z,101046.55
2023-01-22T10:39:41.281Z,101050.10
2023-01-22T10:44:45.229Z,101045.22
2023-01-22T10:50:03.432Z,101038.91
2023-01-22T10:55:29.765Z,101038.45
2023-01-22T11:00:50.435Z,101035.40
2023-01-22T11:06:29.668Z,101034.98
2023-01-22T11:11:47.656Z,101034.55
2023-01-22T11:16:53.807Z,101035.04
2023-01-22T11:21:59.943Z,101029.92
2023-01-22T11:27:30.737Z,101025.23
2023-01-22T11:33:01.765Z,101019.91
2023-01-22T11:38:30.221Z,101018.36
2023-01-22T11:43:33.310Z,101023.17
2023-01-22T11:48:49.712Z,101018.25
2023-01-22T11:54:12.890Z,101017.11
2023-01-22T11:59:49.833Z,101020.15
2023-01-22T12:05:15.673Z,101025.02
2023-01-22T12:10:46.592Z,101037.58
2023-01-22T12:16:11.363Z,101040.17
2023-01-22T12:21:23.350Z,101041.55
2023-01-22T12:26:46.853Z,101048.73
2023-01-22T12:32:00.306Z,101046.94
2023-01-22T12:37:06.544Z,101049.63
2023-01-22T12:42:52.394Z,101054.44
2023-01-22T12:48:11.755Z,101050.85
2023-01-22T12:53:23.780Z,101056.84
2023-01-22T12:58:30.136Z,101058.04
2023-01-22T13:03:33.802Z,101065.13
2023-01-22T13:08:41.089Z,101068.44
2023-01-22T13:13:45.159Z,101071.16
2023-01-22T13:18:53.892Z,101076.54
2023-01-22T13:24:19.401Z,101076.60
2023-01-22T13:29:28.821Z,101072.64
2023-01-22T13:34:32.856Z,101069.99
2023-01-22T13:39:35.743Z,101072.96
2023-01-22T13:44:41.075Z,101075.73
2023-01-22T13:49:43.980Z,101086.20
2023-01-22T13:55:11.921Z,101083.02
2023-01-22T14:00:30.667Z,101090.65
2023-01-22T14:05:35.509Z,101095.02
2023-01-22T14:10:42.310Z,101095.36
2023-01-22T14:15:59.778Z,101099.55
2023-01-22T14:21:03.432Z,101105.01
2023-01-22T14:26:08.560Z,101112.76
2023-01-22T14:31:12.386Z,101115.33
2023-01-22T14:36:14.584Z,101118.19
2023-01-22T14:41:17.133Z,101116.79
2023-01-22T14:46:19.919Z,101126.94
2023-01-22T14:51:24.197Z,101133.05
2023-01-22T14:56:27.556Z,101133.93
2023-01-22T15:01:29.805Z,101124.02
2023-01-22T15:06:32.805Z,101143.47
2023-01-22T15:11:35.803Z,101162.02
2023-01-22T15:16:38.820Z,101157.19
2023-01-22T15:21:41.379Z,101167.43
2023-01-22T15:26:44.813Z,101173.74
2023-01-22T15:31:48.204Z,101174.73
2023-01-22T15:36:50.941Z,101181.89
2023-01-22T15:41:53.066Z,101187.80
2023-01-22T15:47:01.243Z,101189.01
2023-01-22T15:52:04.789Z,101193.45
2023-01-22T15:57:08.117Z,101195.26
2023-01-22T16:02:11.752Z,101198.28
2023-01-22T16:07:14.649Z,101201.27
2023-01-22T16:12:18.683Z,101209.66
2023-01-22T16:17:25.057Z,101218.27
2023-01-22T16:22:27.668Z,101219.35
2023-01-22T16:27:31.113Z,101217.52
2023-01-22T16:32:35.082Z,101219.62
2023-01-22T16:37:39.570Z,101222.77
2023-01-22T16:42:58.697Z,101222.11
2023-01-22T16:48:02.023Z,101225.77
2023-01-22T16:53:05.362Z,101229.92
2023-01-22T16:58:07.910Z,101236.25
2023-01-22T17:03:10.704Z,101239.70
2023-01-22T17:08:15.957Z,101239.33
2023-01-22T17:13:18.531Z,101236.52
2023-01-22T17:18:21.057Z,101239.70
2023-01-22T17:23:23.899Z,101249.08
2023-01-22T17:28:27.752Z,101256.66
2023-01-22T17:33:30.471Z,101263.06
2023-01-22T17:38:38.402Z,101271.15
2023-01-22T17:43:44.293Z,101277.84
2023-01-22T17:48:49.311Z,101276.45
2023-01-22T17:53:54.728Z,101274.56
2023-01-22T17:59:00.921Z,101276.64
2023-01-22T18:04:06.881Z,101279.38
2023-01-22T18:09:11.375Z,101279.31
2023-01-22T18:14:21.928Z,101283.95
2023-01-22T18:19:27.280Z,101284.27
2023-01-22T18:24:31.603Z,101291.11
2023-01-22T18:29:36.820Z,101295.77
2023-01-22T18:34:41.611Z,101304.60
2023-01-22T18:39:44.881Z,101309.06
2023-01-22T18:44:47.812Z,101312.05
2023-01-22T18:49:50.416Z,101317.85
2023-01-22T18:54:53.876Z,101323.59
2023-01-22T18:59:57.650Z,101330.34
2023-01-22T19:05:00.652Z,101336.66
2023-01-22T19:10:12.398Z,101340.64
2023-01-22T19:15:15.233Z,101335.69
2023-01-22T19:20:19.780Z,101331.88
2023-01-22T19:25:23.424Z,101335.73
2023-01-22T19:30:26.733Z,101341.89
2023-01-22T19:35:29.549Z,101352.17
2023-01-22T19:40:32.502Z,101355.45
2023-01-22T19:45:36.763Z,101359.05
2023-01-22T19:50:41.357Z,101362.46
2023-01-22T19:55:44.676Z,101362.59
2023-01-22T20:00:51.564Z,101362.09
2023-01-22T20:05:56.342Z,101361.38
2023-01-22T20:11:00.691Z,101360.45
2023-01-22T20:16:07.079Z,101360.30
2023-01-22T20:21:15.145Z,101361.27
2023-01-22T20:26:19.951Z,101367.02
2023-01-22T20:31:24.800Z,101368.80
2023-01-22T20:36:29.331Z,101377.39
2023-01-22T20:41:34.201Z,101380.83
2023-01-22T20:46:41.321Z,101391.20
2023-01-22T20:51:47.249Z,101402.33
2023-01-22T20:56:50.459Z,101403.89
2023-01-22T21:01:54.420Z,101395.73
2023-01-22T21:06:58.490Z,101396.67
2023-01-22T21:12:01.805Z,101396.95
2023-01-22T21:17:06.546Z,101402.95
2023-01-22T21:22:10.178Z,101402.83
2023-01-22T21:27:12.983Z,101404.67
2023-01-22T21:32:15.772Z,101407.45
2023-01-22T21:37:18.281Z,101410.95
2023-01-22T21:42:40.303Z,101407.66
2023-01-22T21:47:43.358Z,101408.67
2023-01-22T21:52:48.922Z,101413.60
2023-01-22T21:57:52.046Z,101418.16
2023-01-22T22:02:55.644Z,101421.29
2023-01-22T22:07:59.612Z,101429.25
2023-01-22T22:13:02.502Z,101432.52
2023-01-22T22:18:04.438Z,101442.40
2023-01-22T22:23:06.929Z,101446.07
2023-01-22T22:28:09.094Z,101446.31
2023-01-22T22:33:12.005Z,101452.73
2023-01-22T22:38:14.607Z,101457.59
2023-01-22T22:43:16.794Z,101468.54
2023-01-22T22:48:19.444Z,101470.92
2023-01-22T22:53:22.332Z,101468.36
2023-01-22T22:58:24.981Z,101455.88
2023-01-22T23:03:27.505Z,101458.30
2023-01-22T23:08:29.764Z,101466.48
2023-01-22T23:13:33.129Z,101465.63
2023-01-22T23:18:36.636Z,101461.91
2023-01-22T23:23:40.074Z,101465.75
2023-01-22T23:28:43.268Z,101477.57
2023-01-22T23:33:51.169Z,101487.30
2023-01-22T23:38:55.184Z,101489.16
2023-01-22T23:43:57.876Z,101494.23
2023-01-22T23:49:01.609Z,101500.04
2023-01-22T23:54:05.397Z,101499.44
2023-01-22T23:59:10.695Z,101490.27
